Terminal Aerodrome Forecast
Issued by NWS

Home | Current Version | Previous Version | Text Only | Print | Product List | Glossary Off
Versions: 1 2 3 4 5 6 7 8 9 10 11 12 13 14 15

000
FTUS43 KAPX 292339
TAFTVC
TAF
KTVC 292339Z 3000/3024 VRB03KT P6SM VCSH BKN040
     FM300100 VRB03KT P6SM SCT040
     FM300600 VRB03KT 5SM BR SCT090
     FM301200 VRB03KT P6SM VCSH SCT040 BKN090
     FM301700 36006KT P6SM VCSH BKN028 OVC080=

USA.gov is the U.S. government's official web portal to all federal, state and local government web resources and services.